Search for airport 
image banner adimage banner adimage banner ad
image banner ad

CA71 - Horse Shoe A Ranch

Located in Drytown, United States

ICAO - CA71, IATA -

Data provided by Airmate  

General information

Coordinates: N38°26'24" W120°53'13"
Elevation is 750 feet MSL.
Magnetic variation is 16° East
View others Airports in California

Operational data

Special qualification required
Current time UTC:
Current local time:
METAR: KJAQ 210915Z AUTO 34009KT 10SM CLR 22/03 A2988 RMK AO1 T02220032
View NOTAMs / SUP AIP / TFR affecting this airport [VIEW]
Communications frequencies: [VIEW]

Runways:

RWY identifierQFULength (ft)Width (ft)SurfaceLDA (ft)
14300050EARTH
32300050EARTH

Airport contact information

Address: Drytown United States

Satellite view of CA71